createdAt,value
2022-08-05T00:00:51.447Z,45.68
2022-08-05T00:01:51.434Z,45.57
2022-08-05T00:02:52.292Z,45.95
2022-08-05T00:03:51.452Z,45.95
2022-08-05T00:04:55.564Z,46.37
2022-08-05T00:06:04.905Z,46.34
2022-08-05T00:06:52.068Z,45.95
2022-08-05T00:08:00.748Z,46.44
2022-08-05T00:08:51.658Z,46.93
2022-08-05T00:09:51.701Z,46.93
2022-08-05T00:10:51.742Z,46.44
2022-08-05T00:11:55.632Z,46.54
2022-08-05T00:12:56.820Z,46.34
2022-08-05T00:13:53.256Z,47.03
2022-08-05T00:14:51.994Z,46.93
2022-08-05T00:15:56.413Z,46.73
2022-08-05T00:16:53.431Z,46.73
2022-08-05T00:17:52.036Z,47.22
2022-08-05T00:18:52.076Z,47.42
2022-08-05T00:20:01.903Z,47.32
2022-08-05T00:20:52.160Z,47.13
2022-08-05T00:21:52.208Z,46.71
2022-08-05T00:22:55.250Z,47.22
2022-08-05T00:24:09.978Z,46.93
2022-08-05T00:24:55.108Z,47.32
2022-08-05T00:25:52.370Z,47.30
2022-08-05T00:26:52.925Z,47.49
2022-08-05T00:27:52.456Z,47.88
2022-08-05T00:28:52.494Z,47.69
2022-08-05T00:29:52.541Z,47.69
2022-08-05T00:30:53.638Z,47.69
2022-08-05T00:32:09.362Z,47.98
2022-08-05T00:32:52.662Z,47.78
2022-08-05T00:34:55.987Z,48.36
2022-08-05T00:35:04.789Z,48.66
2022-08-05T00:36:16.217Z,48.46
2022-08-05T00:37:10.960Z,48.46
2022-08-05T00:37:54.094Z,48.75
2022-08-05T00:38:52.924Z,48.17
2022-08-05T00:39:58.625Z,48.34
2022-08-05T00:40:53.381Z,48.44
2022-08-05T00:41:55.560Z,48.93
2022-08-05T00:42:53.076Z,48.83
2022-08-05T00:43:53.117Z,48.93
2022-08-05T00:44:53.159Z,49.12
2022-08-05T00:45:53.202Z,49.32
2022-08-05T00:46:54.179Z,49.22
2022-08-05T00:47:57.705Z,49.71
2022-08-05T00:48:53.324Z,49.61
2022-08-05T00:49:53.375Z,49.71
2022-08-05T00:50:53.407Z,49.80
2022-08-05T00:51:53.456Z,49.32
2022-08-05T00:52:54.934Z,49.71
2022-08-05T00:54:02.304Z,49.90
2022-08-05T00:54:53.573Z,50.38
2022-08-05T00:55:53.631Z,50.09
2022-08-05T00:56:53.655Z,50.38
2022-08-05T00:57:58.690Z,50.46
2022-08-05T00:58:53.742Z,50.16
2022-08-05T00:59:53.781Z,50.46
2022-08-05T01:00:53.873Z,49.97
2022-08-05T01:01:53.898Z,50.16
2022-08-05T01:02:53.910Z,50.95
2022-08-05T01:03:53.947Z,50.75
2022-08-05T01:04:53.991Z,50.56
2022-08-05T01:05:54.436Z,51.33
2022-08-05T01:06:55.047Z,51.62
2022-08-05T01:08:41.080Z,51.62
2022-08-05T01:08:54.152Z,51.62
2022-08-05T01:09:55.601Z,51.82
2022-08-05T01:10:54.234Z,51.62
2022-08-05T01:11:54.276Z,51.70
2022-08-05T01:13:13.046Z,52.28
2022-08-05T01:13:58.847Z,52.28
2022-08-05T01:14:54.399Z,52.50
2022-08-05T01:15:54.443Z,53.25
2022-08-05T01:16:54.481Z,53.35
2022-08-05T01:17:54.524Z,53.25
2022-08-05T01:18:56.372Z,53.35
2022-08-05T01:20:02.088Z,52.86
2022-08-05T01:20:54.670Z,53.45
2022-08-05T01:21:54.690Z,53.35
2022-08-05T01:22:57.217Z,53.35
2022-08-05T01:23:54.771Z,53.54
2022-08-05T01:24:54.811Z,53.35
2022-08-05T01:25:54.855Z,53.42
2022-08-05T01:26:54.894Z,53.25
2022-08-05T01:27:55.825Z,53.45
2022-08-05T01:28:54.974Z,53.81
2022-08-05T01:29:55.016Z,53.74
2022-08-05T01:30:55.342Z,54.00
2022-08-05T01:31:55.102Z,53.22
2022-08-05T01:32:55.138Z,54.20
2022-08-05T01:33:55.421Z,53.91
2022-08-05T01:34:55.221Z,54.29
2022-08-05T01:35:55.262Z,54.29
2022-08-05T01:36:55.301Z,54.39
2022-08-05T01:37:55.347Z,54.49
2022-08-05T01:38:55.441Z,54.66
2022-08-05T01:39:59.070Z,54.97
2022-08-05T01:40:55.465Z,55.14
2022-08-05T01:41:55.505Z,55.33
2022-08-05T01:42:55.546Z,55.24
2022-08-05T01:43:55.589Z,55.43
2022-08-05T01:44:55.629Z,55.53
2022-08-05T01:45:56.659Z,55.73
2022-08-05T01:46:55.709Z,55.92
2022-08-05T01:47:55.754Z,55.92
2022-08-05T01:48:55.791Z,56.11
2022-08-05T01:50:02.226Z,56.40
2022-08-05T01:50:55.871Z,56.01
2022-08-05T01:51:55.912Z,56.70
2022-08-05T01:52:55.954Z,56.79
2022-08-05T01:53:58.651Z,56.89
2022-08-05T01:54:56.033Z,57.57
2022-08-05T01:55:56.081Z,57.37
2022-08-05T01:58:09.773Z,57.28
2022-08-05T01:58:18.741Z,57.25
2022-08-05T01:58:56.196Z,57.83
2022-08-05T01:59:56.240Z,57.64
2022-08-05T02:00:56.278Z,57.64
2022-08-05T02:01:56.405Z,57.93
2022-08-05T02:02:56.359Z,58.12
2022-08-05T02:03:56.402Z,58.51
2022-08-05T02:04:56.443Z,58.61
2022-08-05T02:05:58.008Z,58.70
2022-08-05T02:06:56.523Z,58.90
2022-08-05T02:08:01.178Z,58.70
2022-08-05T02:08:58.851Z,59.38
2022-08-05T02:09:56.642Z,59.77
2022-08-05T02:10:56.682Z,59.28
2022-08-05T02:11:56.725Z,59.67
2022-08-05T02:12:56.766Z,59.48
2022-08-05T02:13:56.805Z,59.28
2022-08-05T02:14:56.845Z,59.58
2022-08-05T02:15:56.888Z,59.38
2022-08-05T02:16:56.928Z,59.55
2022-08-05T02:18:32.992Z,59.97
2022-08-05T02:18:57.006Z,60.32
2022-08-05T02:19:57.047Z,60.03
2022-08-05T02:20:58.737Z,60.32
2022-08-05T02:21:57.129Z,60.13
2022-08-05T02:22:57.168Z,60.45
2022-08-05T02:23:57.210Z,60.03
2022-08-05T02:24:57.248Z,60.13
2022-08-05T02:25:57.290Z,60.13
2022-08-05T02:26:57.330Z,60.81
2022-08-05T02:27:58.048Z,60.52
2022-08-05T02:28:58.216Z,60.32
2022-08-05T02:29:58.388Z,60.71
2022-08-05T02:30:57.491Z,60.52
2022-08-05T02:31:57.534Z,60.52
2022-08-05T02:32:57.582Z,60.91
2022-08-05T02:33:58.136Z,61.39
2022-08-05T02:34:57.661Z,61.19
2022-08-05T02:36:00.673Z,61.00
2022-08-05T02:36:57.736Z,60.91
2022-08-05T02:38:00.178Z,61.29
2022-08-05T02:38:57.924Z,60.97
2022-08-05T02:39:57.854Z,61.78
2022-08-05T02:40:57.940Z,62.04
2022-08-05T02:42:01.206Z,61.26
2022-08-05T02:42:57.977Z,61.65
2022-08-05T02:44:06.014Z,61.46
2022-08-05T02:44:58.055Z,62.23
2022-08-05T02:45:58.096Z,62.04
2022-08-05T02:47:00.165Z,62.04
2022-08-05T02:48:06.670Z,62.23
2022-08-05T02:48:58.230Z,62.04
2022-08-05T02:49:58.258Z,62.33
2022-08-05T02:50:58.300Z,62.23
2022-08-05T02:52:03.165Z,62.23
2022-08-05T02:52:58.380Z,62.72
2022-08-05T02:54:03.333Z,62.62
2022-08-05T02:54:58.456Z,63.20
2022-08-05T02:55:59.938Z,63.10
2022-08-05T02:56:58.536Z,62.91
2022-08-05T02:58:11.079Z,62.91
2022-08-05T02:58:58.615Z,63.30
2022-08-05T02:59:59.419Z,62.91
2022-08-05T03:00:58.699Z,63.20
2022-08-05T03:01:58.842Z,62.91
2022-08-05T03:02:58.777Z,63.59
2022-08-05T03:04:02.583Z,63.49
2022-08-05T03:04:58.858Z,63.88
2022-08-05T03:06:54.783Z,63.30
2022-08-05T03:07:00.255Z,63.56
2022-08-05T03:08:04.323Z,63.98
2022-08-05T03:08:59.032Z,64.17
2022-08-05T03:09:59.058Z,63.88
2022-08-05T03:11:53.668Z,63.95
2022-08-05T03:11:59.151Z,63.95
2022-08-05T03:14:02.715Z,64.17
2022-08-05T03:15:02.072Z,64.37
2022-08-05T03:17:09.015Z,64.04
2022-08-05T03:18:06.167Z,64.14
2022-08-05T03:20:10.462Z,64.62
2022-08-05T03:21:10.269Z,64.43
2022-08-05T03:23:14.333Z,64.82
2022-08-05T03:24:14.367Z,64.82
2022-08-05T03:25:32.988Z,64.92
2022-08-05T03:26:31.543Z,65.01
2022-08-05T03:27:14.487Z,65.01
2022-08-05T03:28:14.528Z,64.92
2022-08-05T03:29:17.330Z,64.92
2022-08-05T03:30:14.607Z,65.11
2022-08-05T03:31:18.206Z,65.40
2022-08-05T03:32:14.686Z,65.20
2022-08-05T03:33:14.724Z,65.11
2022-08-05T03:34:14.768Z,65.40
2022-08-05T03:35:14.807Z,65.11
2022-08-05T03:36:14.846Z,65.11
2022-08-05T03:37:14.883Z,65.20
2022-08-05T03:38:14.926Z,65.30
2022-08-05T03:39:20.036Z,65.50
2022-08-05T03:40:15.519Z,65.20
2022-08-05T03:41:15.044Z,65.40
2022-08-05T03:42:15.084Z,65.47
2022-08-05T03:43:58.504Z,66.27
2022-08-05T03:44:20.019Z,65.59
2022-08-05T03:45:21.553Z,65.89
2022-08-05T03:46:15.243Z,65.98
2022-08-05T03:47:15.355Z,65.40
2022-08-05T03:48:15.323Z,65.98
2022-08-05T03:49:15.362Z,65.75
2022-08-05T03:50:15.401Z,65.30
2022-08-05T03:52:37.709Z,65.47
2022-08-05T03:52:50.622Z,65.89
2022-08-05T03:55:34.230Z,66.08
2022-08-05T03:55:51.628Z,65.89
2022-08-05T03:56:01.782Z,65.98
2022-08-05T03:56:18.107Z,66.08
2022-08-05T03:57:16.389Z,66.17
2022-08-05T03:58:15.721Z,65.56
2022-08-05T03:59:15.763Z,65.98
2022-08-05T04:00:16.433Z,65.79
2022-08-05T04:01:15.871Z,66.08
2022-08-05T04:02:17.597Z,65.89
2022-08-05T04:03:28.217Z,66.27
2022-08-05T04:04:16.870Z,66.27
2022-08-05T04:05:16.001Z,66.08
2022-08-05T04:06:16.038Z,66.17
2022-08-05T04:07:16.096Z,66.17
2022-08-05T04:08:34.819Z,66.27
2022-08-05T04:09:20.286Z,66.34
2022-08-05T04:10:17.540Z,65.98
2022-08-05T04:11:16.248Z,66.27
2022-08-05T04:12:23.576Z,66.27
2022-08-05T04:13:16.319Z,66.37
2022-08-05T04:14:18.174Z,65.98
2022-08-05T04:15:16.832Z,66.56
2022-08-05T04:16:16.437Z,65.98
2022-08-05T04:17:16.476Z,66.17
2022-08-05T04:18:22.510Z,66.37
2022-08-05T04:19:16.554Z,66.47
2022-08-05T04:20:16.594Z,66.24
2022-08-05T04:21:45.752Z,66.08
2022-08-05T04:22:20.600Z,66.24
2022-08-05T04:23:16.715Z,66.27
2022-08-05T04:24:19.346Z,66.08
2022-08-05T04:25:16.792Z,66.14
2022-08-05T04:26:17.387Z,66.27
2022-08-05T04:27:16.930Z,66.27
2022-08-05T04:28:17.271Z,66.53
2022-08-05T04:29:16.955Z,66.27
2022-08-05T04:30:16.994Z,66.27
2022-08-05T04:31:17.036Z,66.08
2022-08-05T04:32:30.649Z,66.56
2022-08-05T04:33:17.113Z,66.43
2022-08-05T04:34:32.584Z,66.27
2022-08-05T04:35:19.454Z,66.75
2022-08-05T04:36:46.143Z,66.56
2022-08-05T04:37:17.271Z,66.75
2022-08-05T04:38:17.308Z,66.66
2022-08-05T04:39:17.389Z,66.56
2022-08-05T04:40:19.639Z,66.66
2022-08-05T04:41:17.429Z,66.85
2022-08-05T04:43:29.959Z,66.66
2022-08-05T04:44:30.812Z,66.47
2022-08-05T04:46:28.238Z,66.95
2022-08-05T04:47:23.324Z,67.14
2022-08-05T04:49:16.288Z,66.85
2022-08-05T04:50:16.266Z,66.75
2022-08-05T04:52:20.383Z,66.56
2022-08-05T04:53:20.418Z,66.56
2022-08-05T04:54:20.460Z,66.47
2022-08-05T04:55:21.057Z,66.66
2022-08-05T04:56:35.143Z,66.56
2022-08-05T04:57:20.595Z,66.56
2022-08-05T04:58:21.695Z,66.56
2022-08-05T04:59:23.957Z,67.05
2022-08-05T05:00:23.586Z,66.56
2022-08-05T05:02:05.827Z,66.75
2022-08-05T05:02:41.499Z,66.95
2022-08-05T05:03:20.814Z,66.75
2022-08-05T05:04:20.858Z,67.14
2022-08-05T05:05:28.191Z,67.14
2022-08-05T05:06:40.671Z,66.75
2022-08-05T05:07:29.277Z,67.27
2022-08-05T05:08:26.737Z,66.66
2022-08-05T05:09:21.060Z,66.69
2022-08-05T05:10:21.093Z,66.95
2022-08-05T05:11:21.133Z,66.60
2022-08-05T05:12:21.171Z,66.79
2022-08-05T05:13:21.214Z,66.69
2022-08-05T05:14:27.776Z,66.95
2022-08-05T05:15:57.436Z,66.89
2022-08-05T05:16:21.331Z,66.79
2022-08-05T05:17:24.705Z,66.79
2022-08-05T05:18:31.179Z,66.60
2022-08-05T05:19:23.681Z,66.69
2022-08-05T05:20:21.496Z,66.69
2022-08-05T05:21:21.533Z,66.89
2022-08-05T05:22:24.646Z,67.18
2022-08-05T05:23:21.613Z,66.60
2022-08-05T05:24:21.662Z,66.99
2022-08-05T05:25:21.691Z,67.27
2022-08-05T05:26:28.689Z,67.08
2022-08-05T05:27:21.964Z,67.08
2022-08-05T05:28:21.819Z,67.08
2022-08-05T05:29:21.851Z,66.99
2022-08-05T05:30:29.783Z,66.99
2022-08-05T05:31:21.934Z,67.27
2022-08-05T05:32:21.974Z,66.79
2022-08-05T05:33:23.463Z,66.60
2022-08-05T05:34:27.122Z,66.89
2022-08-05T05:35:22.091Z,67.18
2022-08-05T05:36:22.129Z,66.82
2022-08-05T05:37:22.459Z,66.60
2022-08-05T05:38:27.098Z,66.99
2022-08-05T05:39:22.294Z,67.37
2022-08-05T05:40:22.289Z,67.08
2022-08-05T05:41:22.332Z,67.27
2022-08-05T05:42:22.370Z,66.69
2022-08-05T05:43:54.030Z,67.31
2022-08-05T05:44:36.528Z,66.69
2022-08-05T05:45:22.491Z,67.02
2022-08-05T05:46:22.530Z,66.92
2022-08-05T05:47:22.571Z,67.31
2022-08-05T05:48:27.582Z,66.72
2022-08-05T05:49:23.376Z,66.63
2022-08-05T05:50:22.690Z,66.72
2022-08-05T05:51:22.748Z,66.72
2022-08-05T05:52:26.438Z,66.82
2022-08-05T05:53:23.067Z,66.92
2022-08-05T05:54:22.883Z,66.82
2022-08-05T05:55:22.928Z,66.72
2022-08-05T05:56:26.013Z,66.92
2022-08-05T05:57:23.073Z,66.44
2022-08-05T05:58:23.013Z,66.63
2022-08-05T05:59:23.052Z,66.34
2022-08-05T06:00:27.757Z,66.82
2022-08-05T06:01:23.470Z,67.11
2022-08-05T06:02:32.559Z,66.82
2022-08-05T06:03:39.645Z,66.53
2022-08-05T06:04:23.503Z,66.24
2022-08-05T06:05:23.329Z,66.34
2022-08-05T06:06:23.354Z,66.14
2022-08-05T06:07:23.664Z,66.14
2022-08-05T06:08:32.397Z,66.53
2022-08-05T06:09:26.517Z,66.34
2022-08-05T06:10:23.787Z,66.34
2022-08-05T06:11:23.561Z,66.34
2022-08-05T06:12:23.737Z,66.14
2022-08-05T06:13:23.692Z,66.05
2022-08-05T06:14:23.724Z,65.95
2022-08-05T06:15:24.510Z,66.53
2022-08-05T06:16:31.806Z,66.63
2022-08-05T06:17:24.567Z,66.34
2022-08-05T06:18:31.269Z,66.05
2022-08-05T06:19:34.136Z,66.44
2022-08-05T06:20:24.142Z,66.82
2022-08-05T06:21:24.019Z,66.53
2022-08-05T06:22:24.029Z,66.66
2022-08-05T06:23:24.011Z,66.56
2022-08-05T06:24:27.313Z,66.72
2022-08-05T06:25:59.858Z,67.14
2022-08-05T06:26:25.150Z,67.14
2022-08-05T06:28:10.782Z,66.56
2022-08-05T06:28:24.551Z,67.05
2022-08-05T06:29:46.787Z,67.14
2022-08-05T06:30:24.354Z,67.24
2022-08-05T06:31:30.583Z,67.21
2022-08-05T06:32:25.938Z,67.69
2022-08-05T06:33:33.342Z,67.44
2022-08-05T06:34:24.485Z,66.76
2022-08-05T06:36:08.240Z,67.02
2022-08-05T06:36:25.937Z,67.63
2022-08-05T06:37:57.937Z,67.63
2022-08-05T06:38:36.013Z,67.24
2022-08-05T06:39:27.020Z,67.14
2022-08-05T06:40:27.737Z,66.95
2022-08-05T06:41:24.738Z,67.54
2022-08-05T06:42:25.373Z,67.92
2022-08-05T06:43:58.245Z,67.24
2022-08-05T06:44:24.856Z,66.86
2022-08-05T06:45:44.594Z,66.95
2022-08-05T06:46:30.296Z,67.24
2022-08-05T06:48:11.736Z,67.18
2022-08-05T06:48:50.249Z,67.86
2022-08-05T06:50:01.402Z,66.89
2022-08-05T06:50:25.098Z,67.08
2022-08-05T06:51:29.357Z,66.99
2022-08-05T06:52:36.361Z,67.28
2022-08-05T06:53:27.900Z,67.08
2022-08-05T06:54:25.824Z,66.89
2022-08-05T06:55:25.298Z,67.28
2022-08-05T06:56:26.614Z,67.47
2022-08-05T06:58:03.889Z,67.18
2022-08-05T06:58:35.288Z,67.28
2022-08-05T06:59:25.459Z,67.37
2022-08-05T07:00:25.651Z,67.37
2022-08-05T07:01:31.963Z,66.69
2022-08-05T07:02:25.581Z,66.79
2022-08-05T07:03:28.132Z,66.82
2022-08-05T07:04:25.674Z,66.60
2022-08-05T07:05:31.870Z,66.72
2022-08-05T07:06:25.767Z,66.72
2022-08-05T07:07:35.591Z,66.40
2022-08-05T07:08:25.837Z,66.14
2022-08-05T07:09:25.880Z,66.72
2022-08-05T07:10:32.382Z,66.72
2022-08-05T07:11:25.957Z,66.53
2022-08-05T07:12:26.150Z,66.34
2022-08-05T07:13:56.914Z,66.34
2022-08-05T07:14:30.045Z,66.34
2022-08-05T07:16:00.367Z,65.85
2022-08-05T07:17:59.526Z,66.05
2022-08-05T07:18:00.088Z,66.05
2022-08-05T07:18:29.336Z,65.47
2022-08-05T07:20:05.742Z,65.56
2022-08-05T07:20:38.759Z,65.50
2022-08-05T07:21:26.365Z,66.34
2022-08-05T07:22:29.012Z,65.69
2022-08-05T07:23:29.502Z,65.66
2022-08-05T07:24:28.681Z,65.40
2022-08-05T07:25:56.252Z,65.59
2022-08-05T07:26:26.567Z,65.75
2022-08-05T07:27:27.638Z,65.50
2022-08-05T07:28:26.635Z,65.50
2022-08-05T07:30:24.232Z,65.79
2022-08-05T07:30:32.268Z,65.40
2022-08-05T07:31:40.747Z,66.27
2022-08-05T07:32:26.814Z,65.50
2022-08-05T07:33:36.866Z,65.69
2022-08-05T07:34:28.791Z,65.50
2022-08-05T07:36:04.200Z,65.98
2022-08-05T07:36:26.961Z,66.08
2022-08-05T07:37:29.119Z,66.08
2022-08-05T07:38:33.803Z,66.37
2022-08-05T07:40:04.492Z,66.37
2022-08-05T07:40:32.843Z,66.17
2022-08-05T07:42:14.610Z,66.37
2022-08-05T07:42:31.770Z,66.27
2022-08-05T07:43:27.288Z,66.56
2022-08-05T07:44:27.295Z,66.56
2022-08-05T07:45:57.565Z,66.17
2022-08-05T07:46:27.393Z,66.27
2022-08-05T07:47:27.798Z,66.37
2022-08-05T07:49:00.642Z,66.27
2022-08-05T07:49:27.526Z,66.56
2022-08-05T07:50:32.428Z,66.37
2022-08-05T07:51:40.270Z,66.72
2022-08-05T07:52:27.615Z,66.66
2022-08-05T07:53:36.881Z,66.44
2022-08-05T07:54:31.021Z,66.66
2022-08-05T07:55:44.533Z,66.72
2022-08-05T07:56:39.325Z,66.24
2022-08-05T07:57:51.316Z,66.05
2022-08-05T07:58:57.468Z,66.34
2022-08-05T07:59:39.117Z,66.44
2022-08-05T08:00:27.943Z,66.34
2022-08-05T08:01:29.978Z,67.02
2022-08-05T08:02:31.388Z,66.72
2022-08-05T08:03:44.446Z,66.82
2022-08-05T08:04:37.513Z,66.72
2022-08-05T08:05:28.146Z,67.31
2022-08-05T08:06:28.378Z,67.31
2022-08-05T08:07:28.970Z,67.31
2022-08-05T08:08:28.269Z,67.31
2022-08-05T08:09:29.170Z,67.80
2022-08-05T08:10:28.349Z,67.86
2022-08-05T08:11:47.396Z,67.31
2022-08-05T08:12:48.393Z,67.80
2022-08-05T08:13:29.425Z,67.08
2022-08-05T08:14:28.534Z,66.99
2022-08-05T08:16:34.975Z,67.18
2022-08-05T08:16:35.948Z,66.82
2022-08-05T08:17:28.627Z,67.08
2022-08-05T08:18:28.679Z,67.18
2022-08-05T08:20:10.232Z,67.28
2022-08-05T08:20:59.689Z,67.76
2022-08-05T08:21:28.790Z,68.05
2022-08-05T08:22:28.832Z,67.86
2022-08-05T08:24:01.104Z,67.76
2022-08-05T08:24:51.635Z,68.05
2022-08-05T08:26:00.086Z,68.25
2022-08-05T08:26:29.596Z,68.15
2022-08-05T08:27:40.445Z,67.86
2022-08-05T08:28:35.608Z,68.05
2022-08-05T08:30:04.280Z,67.96
2022-08-05T08:30:37.713Z,68.15
2022-08-05T08:31:29.196Z,67.96
2022-08-05T08:32:29.238Z,68.15
2022-08-05T08:33:29.278Z,67.76
2022-08-05T08:34:30.398Z,67.57
2022-08-05T08:35:34.692Z,68.05
2022-08-05T08:36:47.365Z,67.28
2022-08-05T08:37:29.442Z,67.28
2022-08-05T08:38:35.935Z,67.37
2022-08-05T08:39:29.547Z,67.66
2022-08-05T08:40:29.562Z,67.28
2022-08-05T08:41:50.858Z,67.37
2022-08-05T08:42:34.236Z,67.86
2022-08-05T08:45:20.710Z,67.96
2022-08-05T08:45:23.475Z,67.57
2022-08-05T08:45:30.611Z,67.57
2022-08-05T08:46:29.809Z,67.76
2022-08-05T08:48:07.157Z,68.05
2022-08-05T08:48:59.678Z,67.86
2022-08-05T08:50:08.857Z,68.05
2022-08-05T08:51:03.109Z,67.76
2022-08-05T08:52:03.525Z,67.86
2022-08-05T08:52:30.359Z,67.57
2022-08-05T08:53:30.093Z,67.76
2022-08-05T08:54:30.139Z,68.25
2022-08-05T08:56:03.002Z,68.15
2022-08-05T08:56:30.216Z,68.73
2022-08-05T08:57:42.377Z,68.63
2022-08-05T08:58:43.112Z,68.35
2022-08-05T08:59:33.513Z,68.05
2022-08-05T09:00:30.420Z,68.73
2022-08-05T09:01:30.500Z,68.15
2022-08-05T09:02:30.456Z,68.31
2022-08-05T09:03:40.407Z,68.54
2022-08-05T09:04:31.070Z,68.15
2022-08-05T09:05:38.324Z,68.51
2022-08-05T09:06:30.881Z,68.41
2022-08-05T09:07:39.451Z,69.28
2022-08-05T09:08:30.703Z,68.79
2022-08-05T09:09:34.635Z,68.60
2022-08-05T09:10:30.786Z,69.18
2022-08-05T09:11:53.670Z,69.96
2022-08-05T09:12:31.251Z,69.57
2022-08-05T09:13:31.792Z,69.96
2022-08-05T09:14:58.880Z,70.35
2022-08-05T09:15:30.990Z,70.93
2022-08-05T09:16:31.028Z,70.73
2022-08-05T09:17:42.845Z,70.83
2022-08-05T09:18:31.115Z,70.83
2022-08-05T09:19:36.671Z,70.93
2022-08-05T09:20:36.404Z,70.64
2022-08-05T09:22:22.777Z,71.32
2022-08-05T09:22:33.101Z,71.03
2022-08-05T09:23:43.357Z,70.93
2022-08-05T09:24:31.770Z,70.83
2022-08-05T09:26:02.045Z,70.83
2022-08-05T09:26:32.426Z,71.03
2022-08-05T09:28:03.830Z,70.73
2022-08-05T09:28:33.182Z,70.93
2022-08-05T09:29:31.552Z,70.93
2022-08-05T09:30:31.590Z,71.06
2022-08-05T09:32:39.941Z,70.77
2022-08-05T09:32:45.756Z,70.87
2022-08-05T09:33:35.070Z,71.06
2022-08-05T09:34:31.753Z,70.97
2022-08-05T09:35:31.794Z,70.57
2022-08-05T09:36:33.453Z,70.19
2022-08-05T09:38:17.089Z,70.00
2022-08-05T09:38:31.915Z,70.00
2022-08-05T09:39:45.300Z,70.00
2022-08-05T09:40:32.292Z,70.29
2022-08-05T09:41:33.205Z,70.19
2022-08-05T09:42:32.304Z,70.00
2022-08-05T09:43:41.192Z,69.90
2022-08-05T09:44:32.159Z,70.00
2022-08-05T09:46:07.237Z,69.70
2022-08-05T09:46:32.238Z,69.41
2022-08-05T09:47:48.086Z,69.70
2022-08-05T09:48:32.319Z,69.70
2022-08-05T09:49:54.478Z,70.00
2022-08-05T09:50:38.711Z,70.00
2022-08-05T09:51:32.444Z,69.90
2022-08-05T09:52:32.483Z,69.70
2022-08-05T09:53:54.923Z,69.80
2022-08-05T09:54:32.565Z,69.67
2022-08-05T09:55:58.313Z,69.48
2022-08-05T09:56:32.647Z,69.86
2022-08-05T09:57:33.774Z,69.57
2022-08-05T09:58:32.750Z,69.60
2022-08-05T09:59:35.137Z,69.96
2022-08-05T10:00:32.816Z,69.67
2022-08-05T10:01:32.854Z,69.57
2022-08-05T10:02:32.917Z,69.48
2022-08-05T10:03:38.689Z,69.67
2022-08-05T10:04:32.971Z,70.15
2022-08-05T10:05:33.066Z,70.35
2022-08-05T10:06:33.049Z,71.42
2022-08-05T10:08:10.680Z,71.80
2022-08-05T10:08:37.784Z,72.39
2022-08-05T10:09:45.148Z,72.49
2022-08-05T10:10:33.209Z,73.16
2022-08-05T10:11:35.111Z,73.94
2022-08-05T10:12:34.002Z,73.55
2022-08-05T10:13:47.516Z,74.49
2022-08-05T10:14:33.377Z,75.01
2022-08-05T10:15:34.363Z,75.36
2022-08-05T10:16:33.894Z,75.68
2022-08-05T10:17:37.840Z,76.14
2022-08-05T10:18:33.533Z,76.17
2022-08-05T10:20:04.518Z,76.75
2022-08-05T10:20:33.614Z,77.34
2022-08-05T10:21:35.277Z,77.20
2022-08-05T10:22:37.689Z,77.49
2022-08-05T10:23:55.158Z,77.01
2022-08-05T10:24:33.776Z,76.52
2022-08-05T10:25:33.818Z,77.29
2022-08-05T10:26:34.006Z,77.62
2022-08-05T10:28:12.791Z,77.53
2022-08-05T10:28:33.968Z,76.95
2022-08-05T10:30:06.820Z,77.29
2022-08-05T10:31:20.275Z,77.01
2022-08-05T10:32:53.917Z,76.81
2022-08-05T10:32:55.421Z,76.81
2022-08-05T10:33:35.118Z,77.39
2022-08-05T10:34:34.183Z,77.39
2022-08-05T10:35:43.879Z,77.20
2022-08-05T10:36:34.261Z,77.69
2022-08-05T10:37:40.461Z,77.78
2022-08-05T10:38:34.348Z,77.88
2022-08-05T10:39:59.455Z,77.39
2022-08-05T10:40:34.459Z,77.01
2022-08-05T10:41:46.620Z,77.20
2022-08-05T10:42:43.782Z,77.49
2022-08-05T10:44:27.514Z,76.81
2022-08-05T10:45:39.984Z,76.91
2022-08-05T10:47:31.660Z,76.91
2022-08-05T10:48:36.070Z,76.62
2022-08-05T10:50:37.015Z,76.42
2022-08-05T10:51:35.757Z,77.01
2022-08-05T10:52:35.800Z,77.11
2022-08-05T10:53:37.986Z,77.59
2022-08-05T10:54:46.785Z,77.20
2022-08-05T10:56:03.683Z,77.39
2022-08-05T10:56:35.963Z,77.39
2022-08-05T10:57:35.997Z,77.29
2022-08-05T10:58:48.807Z,77.39
2022-08-05T11:00:02.547Z,77.24
2022-08-05T11:00:42.191Z,77.53
2022-08-05T11:01:55.128Z,77.72
2022-08-05T11:02:38.762Z,77.62
2022-08-05T11:03:36.328Z,77.62
2022-08-05T11:04:36.604Z,76.85
2022-08-05T11:05:36.338Z,77.04
2022-08-05T11:06:36.383Z,76.27
2022-08-05T11:08:02.732Z,75.20
2022-08-05T11:08:37.234Z,74.62
2022-08-05T11:09:45.589Z,74.81
2022-08-05T11:10:36.525Z,73.55
2022-08-05T11:11:44.488Z,73.65
2022-08-05T11:12:37.362Z,73.39
2022-08-05T11:13:36.654Z,74.17
2022-08-05T11:15:01.258Z,74.37
2022-08-05T11:15:59.220Z,73.78
2022-08-05T11:16:56.024Z,73.39
2022-08-05T11:17:59.518Z,73.30
2022-08-05T11:18:36.846Z,72.91
2022-08-05T11:20:10.938Z,72.61
2022-08-05T11:20:36.928Z,72.52
2022-08-05T11:21:40.941Z,72.65
2022-08-05T11:22:37.035Z,72.07
2022-08-05T11:24:05.601Z,71.68
2022-08-05T11:24:37.099Z,71.72
2022-08-05T11:26:04.904Z,71.33
2022-08-05T11:26:37.176Z,71.13
2022-08-05T11:27:51.475Z,70.87
2022-08-05T11:28:37.268Z,70.68
2022-08-05T11:29:37.447Z,70.10
2022-08-05T11:30:37.337Z,69.26
2022-08-05T11:31:56.271Z,68.67
2022-08-05T11:32:37.438Z,66.53
2022-08-05T11:33:46.138Z,65.75
2022-08-05T11:34:37.500Z,66.53
2022-08-05T11:35:37.622Z,66.53
2022-08-05T11:36:42.858Z,66.56
2022-08-05T11:38:26.574Z,66.86
2022-08-05T11:38:45.977Z,66.86
2022-08-05T11:39:37.721Z,67.25
2022-08-05T11:40:37.742Z,66.99
2022-08-05T11:42:01.370Z,66.60
2022-08-05T11:42:40.530Z,66.41
2022-08-05T11:44:04.602Z,66.02
2022-08-05T11:44:52.906Z,65.56
2022-08-05T11:46:23.439Z,65.40
2022-08-05T11:46:58.152Z,64.81
2022-08-05T11:47:49.502Z,64.13
2022-08-05T11:48:38.084Z,64.13
2022-08-05T11:49:38.126Z,63.25
2022-08-05T11:50:38.166Z,63.25
2022-08-05T11:51:44.186Z,62.89
2022-08-05T11:52:38.251Z,62.79
2022-08-05T11:53:40.961Z,63.09
2022-08-05T11:54:38.346Z,62.70
2022-08-05T11:55:38.392Z,61.63
2022-08-05T11:56:41.168Z,58.83
2022-08-05T11:58:08.557Z,56.26
2022-08-05T11:58:38.499Z,58.02
2022-08-05T11:59:49.825Z,57.53
2022-08-05T12:00:39.096Z,58.12
2022-08-05T12:01:38.644Z,57.04
2022-08-05T12:02:40.145Z,56.46
2022-08-05T12:03:38.708Z,57.92
2022-08-05T12:04:38.743Z,58.12
2022-08-05T12:05:40.041Z,59.28
2022-08-05T12:06:38.817Z,59.41
2022-08-05T12:08:09.060Z,58.14
2022-08-05T12:08:39.235Z,58.83
2022-08-05T12:09:53.434Z,58.92
2022-08-05T12:10:45.326Z,58.95
2022-08-05T12:11:39.849Z,56.71
2022-08-05T12:12:39.070Z,56.61
2022-08-05T12:13:48.711Z,57.20
2022-08-05T12:14:39.173Z,57.68
2022-08-05T12:15:40.121Z,56.61
2022-08-05T12:16:39.241Z,57.03
2022-08-05T12:18:02.880Z,56.45
2022-08-05T12:18:39.321Z,56.74
2022-08-05T12:20:27.852Z,55.96
2022-08-05T12:20:39.434Z,56.35
2022-08-05T12:21:39.527Z,56.84
2022-08-05T12:22:39.508Z,56.25
2022-08-05T12:23:43.141Z,56.76
2022-08-05T12:24:39.575Z,56.47
2022-08-05T12:25:39.614Z,56.57
2022-08-05T12:26:39.694Z,55.49
2022-08-05T12:27:52.869Z,55.69
2022-08-05T12:28:39.743Z,55.59
2022-08-05T12:29:39.795Z,55.59
2022-08-05T12:30:45.915Z,55.30
2022-08-05T12:31:41.506Z,55.20
2022-08-05T12:32:39.922Z,56.10
2022-08-05T12:33:39.973Z,55.62
2022-08-05T12:34:40.005Z,55.62
2022-08-05T12:35:40.078Z,56.01
2022-08-05T12:36:40.108Z,54.83
2022-08-05T12:37:40.123Z,55.13
2022-08-05T12:38:41.332Z,54.57
2022-08-05T12:39:40.242Z,54.38
2022-08-05T12:40:40.261Z,54.44
2022-08-05T12:41:43.617Z,53.59
2022-08-05T12:42:40.349Z,53.98
2022-08-05T12:43:40.381Z,53.88
2022-08-05T12:44:40.803Z,54.17
2022-08-05T12:45:48.244Z,53.96
2022-08-05T12:46:40.513Z,53.69
2022-08-05T12:47:43.423Z,53.59
2022-08-05T12:48:40.605Z,54.08
2022-08-05T12:50:04.464Z,54.08
2022-08-05T12:50:40.696Z,53.98
2022-08-05T12:52:12.660Z,52.81
2022-08-05T12:52:42.480Z,52.81
2022-08-05T12:53:40.818Z,53.56
2022-08-05T12:54:40.889Z,53.20
2022-08-05T12:55:40.894Z,53.69
2022-08-05T12:56:40.967Z,53.00
2022-08-05T12:58:38.591Z,52.91
2022-08-05T12:58:53.560Z,52.91
2022-08-05T13:00:08.492Z,52.12
2022-08-05T13:02:00.873Z,52.61
2022-08-05T13:02:01.450Z,52.12
2022-08-05T13:02:41.278Z,51.81
2022-08-05T13:03:42.145Z,51.54
2022-08-05T13:04:52.261Z,51.83